sensor_id;sensor_type;location;lat;lon;timestamp;pressure;altitude;pressure_sealevel;temperature;humidity
69796;BME280;57073;45.650;9.612;2024-01-30T00:02:00;101190.09;;;3.14;59.71
69796;BME280;57073;45.650;9.612;2024-01-30T00:07:00;101191.78;;;2.95;59.73
69796;BME280;57073;45.650;9.612;2024-01-30T00:12:01;101199.91;;;2.84;59.80
69796;BME280;57073;45.650;9.612;2024-01-30T00:17:01;101190.63;;;2.69;59.71
69796;BME280;57073;45.650;9.612;2024-01-30T00:22:03;101193.28;;;2.59;60.77
69796;BME280;57073;45.650;9.612;2024-01-30T00:27:03;101199.19;;;2.72;59.43
69796;BME280;57073;45.650;9.612;2024-01-30T00:32:04;101196.53;;;2.82;59.97
69796;BME280;57073;45.650;9.612;2024-01-30T00:37:04;101188.94;;;2.78;59.98
69796;BME280;57073;45.650;9.612;2024-01-30T00:42:05;101196.81;;;2.79;60.46
69796;BME280;57073;45.650;9.612;2024-01-30T00:47:06;101192.75;;;2.75;59.46
69796;BME280;57073;45.650;9.612;2024-01-30T00:52:06;101188.81;;;2.69;58.71
69796;BME280;57073;45.650;9.612;2024-01-30T00:57:07;101187.38;;;2.55;59.79
69796;BME280;57073;45.650;9.612;2024-01-30T01:02:07;101182.47;;;2.41;60.59
69796;BME280;57073;45.650;9.612;2024-01-30T01:07:08;101192.81;;;2.34;61.11
69796;BME280;57073;45.650;9.612;2024-01-30T01:12:08;101190.00;;;2.26;60.87
69796;BME280;57073;45.650;9.612;2024-01-30T01:17:08;101190.25;;;2.23;60.54
69796;BME280;57073;45.650;9.612;2024-01-30T01:22:09;101183.91;;;2.14;60.05
69796;BME280;57073;45.650;9.612;2024-01-30T01:27:09;101185.75;;;2.24;60.26
69796;BME280;57073;45.650;9.612;2024-01-30T01:32:10;101185.63;;;2.15;59.17
69796;BME280;57073;45.650;9.612;2024-01-30T01:37:11;101186.50;;;2.26;59.14
69796;BME280;57073;45.650;9.612;2024-01-30T01:42:11;101186.34;;;2.27;59.39
69796;BME280;57073;45.650;9.612;2024-01-30T01:47:12;101179.25;;;1.97;60.43
69796;BME280;57073;45.650;9.612;2024-01-30T01:52:12;101173.50;;;1.92;59.53
69796;BME280;57073;45.650;9.612;2024-01-30T01:57:13;101173.69;;;2.10;59.44
69796;BME280;57073;45.650;9.612;2024-01-30T02:02:14;101178.16;;;2.09;59.65
69796;BME280;57073;45.650;9.612;2024-01-30T02:07:17;101169.50;;;2.17;59.47
69796;BME280;57073;45.650;9.612;2024-01-30T02:12:18;101170.81;;;1.92;58.93
69796;BME280;57073;45.650;9.612;2024-01-30T02:17:18;101172.59;;;1.82;59.06
69796;BME280;57073;45.650;9.612;2024-01-30T02:22:19;101164.47;;;1.73;60.10
69796;BME280;57073;45.650;9.612;2024-01-30T02:27:20;101167.69;;;1.77;59.19
69796;BME280;57073;45.650;9.612;2024-01-30T02:32:20;101164.34;;;1.85;58.99
69796;BME280;57073;45.650;9.612;2024-01-30T02:37:23;101164.09;;;1.88;59.65
69796;BME280;57073;45.650;9.612;2024-01-30T02:42:23;101170.97;;;1.90;59.61
69796;BME280;57073;45.650;9.612;2024-01-30T02:47:23;101161.78;;;1.73;59.75
69796;BME280;57073;45.650;9.612;2024-01-30T02:52:24;101157.06;;;1.77;58.75
69796;BME280;57073;45.650;9.612;2024-01-30T02:57:24;101160.09;;;1.72;59.57
69796;BME280;57073;45.650;9.612;2024-01-30T03:02:25;101162.66;;;1.84;59.28
69796;BME280;57073;45.650;9.612;2024-01-30T03:07:25;101160.91;;;1.63;59.11
69796;BME280;57073;45.650;9.612;2024-01-30T03:12:26;101158.25;;;1.63;59.40
69796;BME280;57073;45.650;9.612;2024-01-30T03:17:26;101158.50;;;1.60;59.19
69796;BME280;57073;45.650;9.612;2024-01-30T03:22:26;101151.31;;;2.22;57.79
69796;BME280;57073;45.650;9.612;2024-01-30T03:27:27;101159.06;;;2.35;57.73
69796;BME280;57073;45.650;9.612;2024-01-30T03:32:27;101157.78;;;2.39;56.63
69796;BME280;57073;45.650;9.612;2024-01-30T03:37:28;101153.69;;;2.25;57.61
69796;BME280;57073;45.650;9.612;2024-01-30T03:42:28;101153.59;;;1.96;58.06
69796;BME280;57073;45.650;9.612;2024-01-30T03:47:28;101152.34;;;1.90;57.48
69796;BME280;57073;45.650;9.612;2024-01-30T03:52:29;101154.72;;;1.93;57.80
69796;BME280;57073;45.650;9.612;2024-01-30T03:57:29;101156.75;;;1.80;57.33
69796;BME280;57073;45.650;9.612;2024-01-30T04:02:29;101148.72;;;2.01;56.95
69796;BME280;57073;45.650;9.612;2024-01-30T04:07:30;101157.22;;;1.85;58.08
69796;BME280;57073;45.650;9.612;2024-01-30T04:12:30;101147.81;;;1.81;58.17
69796;BME280;57073;45.650;9.612;2024-01-30T04:17:31;101148.66;;;1.82;58.31
69796;BME280;57073;45.650;9.612;2024-01-30T04:22:32;101137.56;;;1.76;57.53
69796;BME280;57073;45.650;9.612;2024-01-30T04:27:33;101134.41;;;1.83;57.69
69796;BME280;57073;45.650;9.612;2024-01-30T04:32:33;101129.41;;;1.99;57.73
69796;BME280;57073;45.650;9.612;2024-01-30T04:37:33;101141.66;;;2.31;55.36
69796;BME280;57073;45.650;9.612;2024-01-30T04:42:34;101131.53;;;1.74;57.74
69796;BME280;57073;45.650;9.612;2024-01-30T04:47:34;101132.00;;;1.89;57.24
69796;BME280;57073;45.650;9.612;2024-01-30T04:52:35;101130.22;;;1.90;56.70
69796;BME280;57073;45.650;9.612;2024-01-30T04:57:36;101134.66;;;1.79;57.51
69796;BME280;57073;45.650;9.612;2024-01-30T05:02:38;101137.75;;;1.85;57.50
69796;BME280;57073;45.650;9.612;2024-01-30T05:07:40;101136.34;;;1.80;57.75
69796;BME280;57073;45.650;9.612;2024-01-30T05:12:41;101139.19;;;1.58;57.74
69796;BME280;57073;45.650;9.612;2024-01-30T05:17:41;101136.78;;;1.55;58.04
69796;BME280;57073;45.650;9.612;2024-01-30T05:22:42;101141.97;;;1.56;57.33
69796;BME280;57073;45.650;9.612;2024-01-30T05:27:45;101134.09;;;1.86;56.96
69796;BME280;57073;45.650;9.612;2024-01-30T05:32:45;101142.66;;;1.89;57.11
69796;BME280;57073;45.650;9.612;2024-01-30T05:37:45;101138.97;;;2.21;55.82
69796;BME280;57073;45.650;9.612;2024-01-30T05:42:46;101143.94;;;2.55;55.08
69796;BME280;57073;45.650;9.612;2024-01-30T05:47:46;101140.06;;;1.99;56.12
69796;BME280;57073;45.650;9.612;2024-01-30T05:52:48;101147.09;;;2.19;55.49
69796;BME280;57073;45.650;9.612;2024-01-30T05:57:48;101147.16;;;1.98;55.52
69796;BME280;57073;45.650;9.612;2024-01-30T06:02:48;101139.19;;;1.98;55.70
69796;BME280;57073;45.650;9.612;2024-01-30T06:07:49;101145.88;;;1.93;56.75
69796;BME280;57073;45.650;9.612;2024-01-30T06:12:49;101147.13;;;1.79;56.52
69796;BME280;57073;45.650;9.612;2024-01-30T06:17:50;101143.88;;;1.45;57.36
69796;BME280;57073;45.650;9.612;2024-01-30T06:22:50;101146.34;;;1.67;57.40
69796;BME280;57073;45.650;9.612;2024-01-30T06:27:51;101150.53;;;1.60;56.95
69796;BME280;57073;45.650;9.612;2024-01-30T06:32:51;101148.31;;;1.65;57.25
69796;BME280;57073;45.650;9.612;2024-01-30T06:37:51;101156.72;;;1.70;57.30
69796;BME280;57073;45.650;9.612;2024-01-30T06:42:52;101160.91;;;1.63;57.30
69796;BME280;57073;45.650;9.612;2024-01-30T06:47:52;101158.03;;;1.55;57.64
69796;BME280;57073;45.650;9.612;2024-01-30T06:52:52;101164.69;;;1.60;58.05
69796;BME280;57073;45.650;9.612;2024-01-30T06:57:53;101164.81;;;1.59;58.09
69796;BME280;57073;45.650;9.612;2024-01-30T07:02:53;101162.72;;;1.63;57.88
69796;BME280;57073;45.650;9.612;2024-01-30T07:07:54;101162.09;;;1.80;57.21
69796;BME280;57073;45.650;9.612;2024-01-30T07:12:54;101164.66;;;1.91;56.84
69796;BME280;57073;45.650;9.612;2024-01-30T07:17:54;101172.50;;;1.93;57.48
69796;BME280;57073;45.650;9.612;2024-01-30T07:22:55;101176.59;;;1.97;57.26
69796;BME280;57073;45.650;9.612;2024-01-30T07:27:56;101172.41;;;2.04;57.81
69796;BME280;57073;45.650;9.612;2024-01-30T07:32:56;101189.63;;;2.41;56.68
69796;BME280;57073;45.650;9.612;2024-01-30T07:37:56;101174.41;;;3.11;54.69
69796;BME280;57073;45.650;9.612;2024-01-30T07:42:57;101189.06;;;3.54;55.46
69796;BME280;57073;45.650;9.612;2024-01-30T07:47:57;101174.91;;;3.91;53.90
69796;BME280;57073;45.650;9.612;2024-01-30T07:52:59;101186.94;;;4.33;53.03
69796;BME280;57073;45.650;9.612;2024-01-30T07:58:00;101186.50;;;4.55;52.60
69796;BME280;57073;45.650;9.612;2024-01-30T08:03:00;101197.91;;;4.93;52.74
69796;BME280;57073;45.650;9.612;2024-01-30T08:08:01;101201.09;;;5.33;51.32
69796;BME280;57073;45.650;9.612;2024-01-30T08:13:01;101204.59;;;5.51;50.00
69796;BME280;57073;45.650;9.612;2024-01-30T08:18:02;101203.56;;;5.70;48.88
69796;BME280;57073;45.650;9.612;2024-01-30T08:23:02;101204.06;;;6.08;48.86
69796;BME280;57073;45.650;9.612;2024-01-30T08:28:03;101205.63;;;6.19;48.71
69796;BME280;57073;45.650;9.612;2024-01-30T08:33:04;101210.22;;;6.35;47.98
69796;BME280;57073;45.650;9.612;2024-01-30T08:38:04;101210.94;;;6.53;48.02
69796;BME280;57073;45.650;9.612;2024-01-30T08:43:05;101211.59;;;6.47;48.74
69796;BME280;57073;45.650;9.612;2024-01-30T08:48:05;101208.28;;;6.62;48.77
69796;BME280;57073;45.650;9.612;2024-01-30T08:53:06;101211.84;;;6.70;48.25
69796;BME280;57073;45.650;9.612;2024-01-30T08:58:06;101217.34;;;6.77;48.34
69796;BME280;57073;45.650;9.612;2024-01-30T09:03:07;101219.94;;;7.03;47.12
69796;BME280;57073;45.650;9.612;2024-01-30T09:08:07;101207.06;;;7.48;47.23
69796;BME280;57073;45.650;9.612;2024-01-30T09:13:07;101208.19;;;7.29;47.26
69796;BME280;57073;45.650;9.612;2024-01-30T09:18:09;101206.50;;;7.77;46.73
69796;BME280;57073;45.650;9.612;2024-01-30T09:23:09;101215.41;;;7.61;46.75
69796;BME280;57073;45.650;9.612;2024-01-30T09:28:09;101220.97;;;7.35;46.22
69796;BME280;57073;45.650;9.612;2024-01-30T09:33:10;101213.59;;;7.37;46.39
69796;BME280;57073;45.650;9.612;2024-01-30T09:38:10;101218.28;;;7.43;46.84
69796;BME280;57073;45.650;9.612;2024-01-30T09:43:15;101214.25;;;7.47;46.99
69796;BME280;57073;45.650;9.612;2024-01-30T09:48:17;101225.19;;;7.38;46.18
69796;BME280;57073;45.650;9.612;2024-01-30T09:53:19;101237.06;;;7.35;46.89
69796;BME280;57073;45.650;9.612;2024-01-30T09:58:19;101238.75;;;7.36;47.21
69796;BME280;57073;45.650;9.612;2024-01-30T10:03:20;101234.22;;;7.45;47.75
69796;BME280;57073;45.650;9.612;2024-01-30T10:08:20;101235.41;;;7.50;47.84
69796;BME280;57073;45.650;9.612;2024-01-30T10:13:21;101236.91;;;7.45;47.98
69796;BME280;57073;45.650;9.612;2024-01-30T10:18:24;101238.09;;;7.50;47.63
69796;BME280;57073;45.650;9.612;2024-01-30T10:23:24;101236.06;;;7.52;46.99
69796;BME280;57073;45.650;9.612;2024-01-30T10:28:27;101235.72;;;7.64;47.84
69796;BME280;57073;45.650;9.612;2024-01-30T10:33:30;101234.38;;;7.68;47.49
69796;BME280;57073;45.650;9.612;2024-01-30T10:38:32;101226.00;;;7.38;44.17
69796;BME280;57073;45.650;9.612;2024-01-30T10:43:35;101222.13;;;7.49;45.02
69796;BME280;57073;45.650;9.612;2024-01-30T10:48:36;101220.97;;;7.68;45.57
69796;BME280;57073;45.650;9.612;2024-01-30T10:53:46;101206.50;;;7.69;46.38
69796;BME280;57073;45.650;9.612;2024-01-30T10:58:48;101200.63;;;7.65;47.63
69796;BME280;57073;45.650;9.612;2024-01-30T11:03:54;101191.72;;;7.73;46.92
69796;BME280;57073;45.650;9.612;2024-01-30T11:09:02;101177.47;;;7.81;48.18
69796;BME280;57073;45.650;9.612;2024-01-30T11:14:04;101182.94;;;7.96;47.57
69796;BME280;57073;45.650;9.612;2024-01-30T11:19:04;101168.75;;;7.79;48.91
69796;BME280;57073;45.650;9.612;2024-01-30T11:24:14;101161.13;;;7.82;48.53
69796;BME280;57073;45.650;9.612;2024-01-30T11:29:14;101151.75;;;7.86;49.52
69796;BME280;57073;45.650;9.612;2024-01-30T11:34:15;101142.56;;;8.12;49.94
69796;BME280;57073;45.650;9.612;2024-01-30T11:39:17;101140.78;;;8.04;50.65
69796;BME280;57073;45.650;9.612;2024-01-30T11:44:18;101130.09;;;7.88;51.64
69796;BME280;57073;45.650;9.612;2024-01-30T11:49:20;101126.03;;;7.92;50.83
69796;BME280;57073;45.650;9.612;2024-01-30T11:54:20;101126.59;;;7.79;51.71
69796;BME280;57073;45.650;9.612;2024-01-30T11:59:21;101111.81;;;7.83;51.76
69796;BME280;57073;45.650;9.612;2024-01-30T12:04:21;101113.34;;;8.17;50.99
69796;BME280;57073;45.650;9.612;2024-01-30T12:09:22;101101.25;;;8.13;50.71
69796;BME280;57073;45.650;9.612;2024-01-30T12:14:23;101093.19;;;8.44;50.83
69796;BME280;57073;45.650;9.612;2024-01-30T12:19:25;101087.56;;;8.54;50.90
69796;BME280;57073;45.650;9.612;2024-01-30T12:24:27;101078.88;;;8.67;49.97
69796;BME280;57073;45.650;9.612;2024-01-30T12:29:27;101073.63;;;8.74;49.87
69796;BME280;57073;45.650;9.612;2024-01-30T12:34:28;101061.56;;;8.69;48.15
69796;BME280;57073;45.650;9.612;2024-01-30T12:39:29;101059.63;;;8.78;47.80
69796;BME280;57073;45.650;9.612;2024-01-30T12:44:29;101053.47;;;8.93;48.02
69796;BME280;57073;45.650;9.612;2024-01-30T12:49:30;101052.97;;;8.89;47.67
69796;BME280;57073;45.650;9.612;2024-01-30T12:54:32;101040.78;;;9.01;47.39
69796;BME280;57073;45.650;9.612;2024-01-30T12:59:32;101036.59;;;8.99;46.20
69796;BME280;57073;45.650;9.612;2024-01-30T13:04:34;101030.47;;;9.05;46.98
69796;BME280;57073;45.650;9.612;2024-01-30T13:09:34;101033.00;;;9.06;45.61
69796;BME280;57073;45.650;9.612;2024-01-30T13:14:35;101017.13;;;9.12;46.06
69796;BME280;57073;45.650;9.612;2024-01-30T13:19:35;101024.91;;;9.21;46.79
69796;BME280;57073;45.650;9.612;2024-01-30T13:24:35;101012.09;;;9.23;45.91
69796;BME280;57073;45.650;9.612;2024-01-30T13:29:36;101017.78;;;9.28;46.45
69796;BME280;57073;45.650;9.612;2024-01-30T13:34:36;101010.28;;;9.24;46.92
69796;BME280;57073;45.650;9.612;2024-01-30T13:39:37;101004.25;;;9.22;47.73
69796;BME280;57073;45.650;9.612;2024-01-30T13:44:37;101011.75;;;9.12;47.30
69796;BME280;57073;45.650;9.612;2024-01-30T13:49:37;101002.28;;;9.16;47.58
69796;BME280;57073;45.650;9.612;2024-01-30T13:54:38;101003.13;;;9.31;48.10
69796;BME280;57073;45.650;9.612;2024-01-30T13:59:39;101003.47;;;9.43;48.79
69796;BME280;57073;45.650;9.612;2024-01-30T14:04:39;101008.59;;;9.53;48.71
69796;BME280;57073;45.650;9.612;2024-01-30T14:09:40;101006.16;;;9.43;49.21
69796;BME280;57073;45.650;9.612;2024-01-30T14:14:41;101004.75;;;9.47;49.08
69796;BME280;57073;45.650;9.612;2024-01-30T14:19:41;101008.84;;;9.43;48.71
69796;BME280;57073;45.650;9.612;2024-01-30T14:24:41;101005.91;;;9.23;50.03
69796;BME280;57073;45.650;9.612;2024-01-30T14:29:42;101005.53;;;9.26;49.70
69796;BME280;57073;45.650;9.612;2024-01-30T14:34:43;101013.50;;;9.34;48.99
69796;BME280;57073;45.650;9.612;2024-01-30T14:39:44;101014.72;;;9.32;48.84
69796;BME280;57073;45.650;9.612;2024-01-30T14:44:44;101012.97;;;9.24;48.75
69796;BME280;57073;45.650;9.612;2024-01-30T14:49:44;101008.13;;;9.19;49.38
69796;BME280;57073;45.650;9.612;2024-01-30T14:54:45;101004.03;;;9.08;49.48
69796;BME280;57073;45.650;9.612;2024-01-30T14:59:45;101016.31;;;9.11;50.16
69796;BME280;57073;45.650;9.612;2024-01-30T15:04:45;101010.16;;;9.02;50.47
69796;BME280;57073;45.650;9.612;2024-01-30T15:09:46;101015.16;;;9.05;50.54
69796;BME280;57073;45.650;9.612;2024-01-30T15:14:46;101010.25;;;9.09;50.65
69796;BME280;57073;45.650;9.612;2024-01-30T15:19:50;101016.19;;;9.04;50.95
69796;BME280;57073;45.650;9.612;2024-01-30T15:24:51;101010.78;;;8.89;50.72
69796;BME280;57073;45.650;9.612;2024-01-30T15:29:51;101015.28;;;8.89;51.22
69796;BME280;57073;45.650;9.612;2024-01-30T15:34:52;101011.16;;;9.01;50.67
69796;BME280;57073;45.650;9.612;2024-01-30T15:39:53;101010.81;;;9.04;51.39
69796;BME280;57073;45.650;9.612;2024-01-30T15:44:53;101011.47;;;9.06;50.55
69796;BME280;57073;45.650;9.612;2024-01-30T15:49:53;101016.72;;;9.00;51.06
69796;BME280;57073;45.650;9.612;2024-01-30T15:54:54;101014.63;;;8.95;51.32
69796;BME280;57073;45.650;9.612;2024-01-30T15:59:54;101016.41;;;8.80;51.32
69796;BME280;57073;45.650;9.612;2024-01-30T16:04:55;101020.81;;;8.58;51.55
69796;BME280;57073;45.650;9.612;2024-01-30T16:09:55;101015.69;;;8.48;51.15
69796;BME280;57073;45.650;9.612;2024-01-30T16:14:55;101025.22;;;8.27;52.41
69796;BME280;57073;45.650;9.612;2024-01-30T16:19:56;101023.44;;;8.20;52.95
69796;BME280;57073;45.650;9.612;2024-01-30T16:24:56;101026.38;;;8.10;52.80
69796;BME280;57073;45.650;9.612;2024-01-30T16:29:57;101030.34;;;7.91;53.47
69796;BME280;57073;45.650;9.612;2024-01-30T16:34:57;101037.16;;;7.79;54.08
69796;BME280;57073;45.650;9.612;2024-01-30T16:39:58;101032.31;;;7.66;54.65
69796;BME280;57073;45.650;9.612;2024-01-30T16:44:58;101036.19;;;7.63;54.86
69796;BME280;57073;45.650;9.612;2024-01-30T16:49:59;101037.47;;;7.44;55.22
69796;BME280;57073;45.650;9.612;2024-01-30T16:54:59;101037.66;;;7.34;55.86
69796;BME280;57073;45.650;9.612;2024-01-30T16:59:59;101041.03;;;7.12;56.33
69796;BME280;57073;45.650;9.612;2024-01-30T17:05:00;101038.69;;;7.17;56.27
69796;BME280;57073;45.650;9.612;2024-01-30T17:10:03;101044.06;;;7.09;56.33
69796;BME280;57073;45.650;9.612;2024-01-30T17:15:04;101045.09;;;7.00;56.83
69796;BME280;57073;45.650;9.612;2024-01-30T17:20:05;101046.28;;;6.89;57.75
69796;BME280;57073;45.650;9.612;2024-01-30T17:25:07;101051.47;;;6.90;57.79
69796;BME280;57073;45.650;9.612;2024-01-30T17:30:08;101052.97;;;6.85;57.47
69796;BME280;57073;45.650;9.612;2024-01-30T17:35:08;101048.63;;;6.75;57.98
69796;BME280;57073;45.650;9.612;2024-01-30T17:40:09;101057.84;;;6.81;57.72
69796;BME280;57073;45.650;9.612;2024-01-30T17:45:09;101057.69;;;6.83;57.42
69796;BME280;57073;45.650;9.612;2024-01-30T17:50:10;101059.50;;;6.82;57.58
69796;BME280;57073;45.650;9.612;2024-01-30T17:55:10;101065.91;;;6.81;57.37
69796;BME280;57073;45.650;9.612;2024-01-30T18:00:11;101058.34;;;6.52;58.36
69796;BME280;57073;45.650;9.612;2024-01-30T18:05:12;101063.34;;;6.38;58.91
69796;BME280;57073;45.650;9.612;2024-01-30T18:10:13;101065.34;;;6.20;59.93
69796;BME280;57073;45.650;9.612;2024-01-30T18:15:18;101069.50;;;6.14;59.53
69796;BME280;57073;45.650;9.612;2024-01-30T18:20:19;101068.34;;;6.17;59.82
69796;BME280;57073;45.650;9.612;2024-01-30T18:25:19;101076.53;;;6.15;60.16
69796;BME280;57073;45.650;9.612;2024-01-30T18:30:19;101077.22;;;6.26;60.03
69796;BME280;57073;45.650;9.612;2024-01-30T18:35:20;101075.03;;;6.13;60.32
69796;BME280;57073;45.650;9.612;2024-01-30T18:40:21;101075.03;;;6.05;60.71
69796;BME280;57073;45.650;9.612;2024-01-30T18:45:22;101083.06;;;6.05;60.47
69796;BME280;57073;45.650;9.612;2024-01-30T18:50:23;101080.38;;;6.13;60.32
69796;BME280;57073;45.650;9.612;2024-01-30T18:55:24;101086.72;;;6.12;60.06
69796;BME280;57073;45.650;9.612;2024-01-30T19:00:25;101078.66;;;5.95;60.03
69796;BME280;57073;45.650;9.612;2024-01-30T19:05:26;101086.56;;;6.13;60.00
69796;BME280;57073;45.650;9.612;2024-01-30T19:10:26;101090.78;;;5.73;61.23
69796;BME280;57073;45.650;9.612;2024-01-30T19:15:29;101081.25;;;5.71;61.48
69796;BME280;57073;45.650;9.612;2024-01-30T19:20:29;101083.56;;;5.66;61.27
69796;BME280;57073;45.650;9.612;2024-01-30T19:25:30;101076.00;;;5.53;61.30
69796;BME280;57073;45.650;9.612;2024-01-30T19:30:31;101078.47;;;5.46;61.78
69796;BME280;57073;45.650;9.612;2024-01-30T19:35:31;101080.00;;;5.57;61.42
69796;BME280;57073;45.650;9.612;2024-01-30T19:40:31;101072.13;;;5.47;61.72
69796;BME280;57073;45.650;9.612;2024-01-30T19:45:32;101072.91;;;5.39;61.31
69796;BME280;57073;45.650;9.612;2024-01-30T19:50:32;101073.50;;;5.33;61.39
69796;BME280;57073;45.650;9.612;2024-01-30T19:55:32;101073.84;;;5.56;61.31
69796;BME280;57073;45.650;9.612;2024-01-30T20:00:33;101076.03;;;5.35;61.77
69796;BME280;57073;45.650;9.612;2024-01-30T20:05:33;101069.75;;;5.44;62.21
69796;BME280;57073;45.650;9.612;2024-01-30T20:10:34;101067.22;;;5.42;61.85
69796;BME280;57073;45.650;9.612;2024-01-30T20:15:34;101076.72;;;5.37;61.81
69796;BME280;57073;45.650;9.612;2024-01-30T20:20:34;101076.34;;;5.05;61.98
69796;BME280;57073;45.650;9.612;2024-01-30T20:25:36;101084.59;;;5.12;62.67
69796;BME280;57073;45.650;9.612;2024-01-30T20:30:36;101077.50;;;5.03;62.63
69796;BME280;57073;45.650;9.612;2024-01-30T20:35:37;101064.66;;;5.06;64.09
69796;BME280;57073;45.650;9.612;2024-01-30T20:40:37;101071.25;;;5.20;64.36
69796;BME280;57073;45.650;9.612;2024-01-30T20:45:38;101078.03;;;5.33;64.04
69796;BME280;57073;45.650;9.612;2024-01-30T20:50:38;101076.56;;;5.12;63.11
69796;BME280;57073;45.650;9.612;2024-01-30T20:55:38;101067.47;;;5.31;62.78
69796;BME280;57073;45.650;9.612;2024-01-30T21:00:39;101059.66;;;5.38;62.19
69796;BME280;57073;45.650;9.612;2024-01-30T21:05:39;101071.50;;;5.35;60.23
69796;BME280;57073;45.650;9.612;2024-01-30T21:10:41;101061.91;;;5.24;61.96
69796;BME280;57073;45.650;9.612;2024-01-30T21:15:42;101075.34;;;5.06;62.19
69796;BME280;57073;45.650;9.612;2024-01-30T21:20:43;101073.03;;;5.12;62.59
69796;BME280;57073;45.650;9.612;2024-01-30T21:25:43;101071.44;;;4.93;62.91
69796;BME280;57073;45.650;9.612;2024-01-30T21:30:43;101072.94;;;4.95;63.73
69796;BME280;57073;45.650;9.612;2024-01-30T21:35:44;101065.41;;;4.91;63.47
69796;BME280;57073;45.650;9.612;2024-01-30T21:40:44;101066.34;;;4.81;62.87
69796;BME280;57073;45.650;9.612;2024-01-30T21:45:44;101068.38;;;4.87;62.27
69796;BME280;57073;45.650;9.612;2024-01-30T21:50:46;101054.84;;;4.89;63.30
69796;BME280;57073;45.650;9.612;2024-01-30T21:55:47;101059.28;;;4.80;62.73
69796;BME280;57073;45.650;9.612;2024-01-30T22:00:47;101055.56;;;4.73;61.10
69796;BME280;57073;45.650;9.612;2024-01-30T22:05:47;101057.41;;;4.73;61.01
69796;BME280;57073;45.650;9.612;2024-01-30T22:10:48;101053.44;;;4.59;61.71
69796;BME280;57073;45.650;9.612;2024-01-30T22:15:48;101060.53;;;4.68;61.39
69796;BME280;57073;45.650;9.612;2024-01-30T22:20:49;101068.09;;;4.73;60.16
69796;BME280;57073;45.650;9.612;2024-01-30T22:25:49;101065.81;;;4.60;60.46
69796;BME280;57073;45.650;9.612;2024-01-30T22:30:50;101067.28;;;4.54;60.98
69796;BME280;57073;45.650;9.612;2024-01-30T22:35:50;101064.38;;;4.65;60.05
69796;BME280;57073;45.650;9.612;2024-01-30T22:40:51;101062.69;;;4.46;60.94
69796;BME280;57073;45.650;9.612;2024-01-30T22:45:51;101062.00;;;4.44;61.24
69796;BME280;57073;45.650;9.612;2024-01-30T22:50:51;101069.25;;;4.52;60.06
69796;BME280;57073;45.650;9.612;2024-01-30T22:55:52;101075.50;;;4.43;60.44
69796;BME280;57073;45.650;9.612;2024-01-30T23:00:52;101074.00;;;4.40;61.30
69796;BME280;57073;45.650;9.612;2024-01-30T23:05:52;101077.25;;;4.34;61.54
69796;BME280;57073;45.650;9.612;2024-01-30T23:10:53;101078.50;;;4.22;60.47
69796;BME280;57073;45.650;9.612;2024-01-30T23:15:53;101082.91;;;4.13;61.35
69796;BME280;57073;45.650;9.612;2024-01-30T23:20:53;101077.28;;;4.16;61.06
69796;BME280;57073;45.650;9.612;2024-01-30T23:25:54;101075.03;;;4.12;61.39
69796;BME280;57073;45.650;9.612;2024-01-30T23:30:54;101075.66;;;4.05;60.51
69796;BME280;57073;45.650;9.612;2024-01-30T23:35:55;101079.28;;;4.04;61.58
69796;BME280;57073;45.650;9.612;2024-01-30T23:40:55;101074.19;;;3.93;60.79
69796;BME280;57073;45.650;9.612;2024-01-30T23:45:56;101065.16;;;3.94;60.85
69796;BME280;57073;45.650;9.612;2024-01-30T23:50:56;101068.53;;;3.96;60.58
69796;BME280;57073;45.650;9.612;2024-01-30T23:55:57;101062.41;;;3.86;60.37
